createdAt,value
2022-12-20T00:00:55.082Z,71.98
2022-12-20T00:03:28.046Z,72.01
2022-12-20T00:06:00.509Z,71.90
2022-12-20T00:08:32.747Z,71.70
2022-12-20T00:11:08.050Z,71.80
2022-12-20T00:13:40.696Z,71.36
2022-12-20T00:16:15.219Z,71.59
2022-12-20T00:18:47.632Z,71.59
2022-12-20T00:21:20.281Z,71.88
2022-12-20T00:23:53.547Z,71.28
2022-12-20T00:26:28.748Z,71.06
2022-12-20T00:29:01.621Z,70.87
2022-12-20T00:31:34.541Z,71.21
2022-12-20T00:34:06.876Z,71.47
2022-12-20T00:36:42.873Z,71.23
2022-12-20T00:39:15.271Z,71.54
2022-12-20T00:41:47.646Z,71.69
2022-12-20T00:44:19.852Z,71.98
2022-12-20T00:46:52.406Z,72.08
2022-12-20T00:49:25.122Z,72.21
2022-12-20T00:51:57.997Z,72.13
2022-12-20T00:54:30.433Z,72.28
2022-12-20T00:57:02.872Z,72.49
2022-12-20T00:59:35.749Z,72.76
2022-12-20T01:02:08.536Z,72.62
2022-12-20T01:04:41.676Z,72.41
2022-12-20T01:07:14.677Z,72.30
2022-12-20T01:09:47.008Z,72.09
2022-12-20T01:12:19.189Z,71.96
2022-12-20T01:14:51.670Z,71.89
2022-12-20T01:17:24.040Z,71.94
2022-12-20T01:19:56.372Z,72.21
2022-12-20T01:22:28.700Z,72.56
2022-12-20T01:25:01.187Z,72.81
2022-12-20T01:27:35.049Z,72.83
2022-12-20T01:30:09.013Z,72.89
2022-12-20T01:32:41.483Z,73.19
2022-12-20T01:35:13.911Z,73.15
2022-12-20T01:37:46.237Z,73.27
2022-12-20T01:40:18.814Z,73.32
2022-12-20T01:42:52.741Z,72.77
2022-12-20T01:45:29.801Z,72.35
2022-12-20T01:48:02.903Z,72.62
2022-12-20T01:50:35.672Z,72.45
2022-12-20T01:53:08.514Z,72.50
2022-12-20T01:55:41.583Z,72.58
2022-12-20T01:58:17.676Z,72.63
2022-12-20T02:00:50.726Z,72.54
2022-12-20T02:03:24.405Z,72.53
2022-12-20T02:05:56.979Z,72.88
2022-12-20T02:08:29.357Z,72.79
2022-12-20T02:11:10.766Z,73.15
2022-12-20T02:13:53.027Z,72.82
2022-12-20T02:16:29.199Z,72.89
2022-12-20T02:19:11.063Z,72.90
2022-12-20T02:21:48.192Z,72.73
2022-12-20T02:24:49.600Z,72.59
2022-12-20T02:27:53.208Z,72.60
2022-12-20T02:30:30.220Z,72.57
2022-12-20T02:33:05.710Z,72.45
2022-12-20T02:35:39.895Z,72.65
2022-12-20T02:38:30.051Z,72.82
2022-12-20T02:41:08.926Z,72.91
2022-12-20T02:44:02.496Z,73.16
2022-12-20T02:46:36.542Z,73.72
2022-12-20T02:49:15.148Z,73.92
2022-12-20T02:51:51.915Z,74.17
2022-12-20T02:54:25.826Z,74.48
2022-12-20T02:57:03.753Z,74.33
2022-12-20T02:59:42.945Z,74.31
2022-12-20T03:02:16.463Z,74.53
2022-12-20T03:04:50.042Z,74.72
2022-12-20T03:07:22.720Z,74.81
2022-12-20T03:09:55.569Z,75.36
2022-12-20T03:12:27.850Z,75.55
2022-12-20T03:15:00.225Z,75.85
2022-12-20T03:17:33.895Z,76.12
2022-12-20T03:20:07.853Z,76.43
2022-12-20T03:22:40.904Z,76.31
2022-12-20T03:25:13.375Z,76.69
2022-12-20T03:27:46.057Z,76.71
2022-12-20T03:30:18.881Z,76.77
2022-12-20T03:32:51.293Z,77.11
2022-12-20T03:35:24.156Z,77.41
2022-12-20T03:37:57.236Z,77.43
2022-12-20T03:40:29.655Z,77.90
2022-12-20T03:43:02.148Z,78.15
2022-12-20T03:45:34.724Z,78.74
2022-12-20T03:48:07.002Z,78.94
2022-12-20T03:50:39.455Z,79.37
2022-12-20T03:53:11.783Z,79.39
2022-12-20T03:55:45.586Z,79.71
2022-12-20T03:58:18.794Z,80.16
2022-12-20T04:00:51.315Z,80.07
2022-12-20T04:03:41.880Z,80.12
2022-12-20T04:06:14.432Z,80.08
2022-12-20T04:08:47.017Z,80.38
2022-12-20T04:11:24.645Z,80.48
2022-12-20T04:14:09.769Z,80.72
2022-12-20T04:16:41.992Z,80.92
2022-12-20T04:19:14.803Z,81.19
2022-12-20T04:21:50.451Z,81.66
2022-12-20T04:24:23.602Z,81.62
2022-12-20T04:27:13.103Z,81.63
2022-12-20T04:29:45.414Z,81.73
2022-12-20T04:32:20.049Z,81.94
2022-12-20T04:34:52.641Z,82.09
2022-12-20T04:37:25.341Z,82.38
2022-12-20T04:39:59.940Z,82.58
2022-12-20T04:42:52.147Z,83.04
2022-12-20T04:45:24.551Z,83.38
2022-12-20T04:47:57.229Z,83.41
2022-12-20T04:50:33.268Z,83.45
2022-12-20T04:53:23.212Z,83.46
2022-12-20T04:55:55.862Z,83.45
2022-12-20T04:58:28.564Z,83.28
2022-12-20T05:01:00.777Z,83.20
2022-12-20T05:03:38.443Z,83.29
2022-12-20T05:06:11.642Z,83.36
2022-12-20T05:08:45.453Z,83.35
2022-12-20T05:11:18.032Z,83.62
2022-12-20T05:13:51.876Z,83.46
2022-12-20T05:16:26.640Z,83.62
2022-12-20T05:18:59.180Z,83.60
2022-12-20T05:21:50.089Z,83.77
2022-12-20T05:24:54.951Z,83.42
2022-12-20T05:27:34.999Z,83.19
2022-12-20T05:30:11.028Z,82.88
2022-12-20T05:32:43.429Z,82.50
2022-12-20T05:35:15.922Z,82.31
2022-12-20T05:37:48.975Z,81.94
2022-12-20T05:40:25.880Z,81.47
2022-12-20T05:42:58.715Z,81.18
2022-12-20T05:45:39.135Z,81.24
2022-12-20T05:48:17.082Z,81.13
2022-12-20T05:50:49.545Z,81.10
2022-12-20T05:53:33.999Z,80.95
2022-12-20T05:56:08.625Z,80.90
2022-12-20T05:58:42.790Z,80.16
2022-12-20T06:01:15.081Z,80.06
2022-12-20T06:03:48.539Z,79.89
2022-12-20T06:06:22.874Z,79.23
2022-12-20T06:08:56.310Z,79.32
2022-12-20T06:11:45.868Z,79.08
2022-12-20T06:14:19.351Z,78.97
2022-12-20T06:16:53.789Z,78.66
2022-12-20T06:19:26.338Z,78.90
2022-12-20T06:22:02.280Z,78.81
2022-12-20T06:24:48.732Z,78.47
2022-12-20T06:27:23.859Z,78.36
2022-12-20T06:30:19.296Z,77.83
2022-12-20T06:33:12.573Z,77.36
2022-12-20T06:35:44.980Z,77.27
2022-12-20T06:38:17.698Z,76.81
2022-12-20T06:40:50.149Z,76.83
2022-12-20T06:43:22.753Z,77.11
2022-12-20T06:45:56.104Z,76.61
2022-12-20T06:48:28.472Z,76.68
2022-12-20T06:51:00.668Z,76.67
2022-12-20T06:53:33.413Z,76.37
2022-12-20T06:56:08.633Z,76.02
2022-12-20T06:58:41.569Z,75.52
2022-12-20T07:01:14.161Z,75.20
2022-12-20T07:03:47.052Z,74.72
2022-12-20T07:06:19.292Z,74.47
2022-12-20T07:08:52.264Z,74.64
2022-12-20T07:11:24.454Z,74.46
2022-12-20T07:14:00.412Z,74.58
2022-12-20T07:16:33.409Z,74.28
2022-12-20T07:19:05.962Z,74.28
2022-12-20T07:21:38.698Z,74.17
2022-12-20T07:24:11.883Z,74.29
2022-12-20T07:26:44.962Z,74.38
2022-12-20T07:29:17.278Z,74.02
2022-12-20T07:31:49.689Z,73.88
2022-12-20T07:34:22.304Z,73.67
2022-12-20T07:36:54.732Z,72.93
2022-12-20T07:39:27.037Z,72.86
2022-12-20T07:41:59.890Z,73.32
2022-12-20T07:44:32.289Z,72.84
2022-12-20T07:47:04.831Z,72.72
2022-12-20T07:49:37.405Z,72.60
2022-12-20T07:52:14.364Z,72.35
2022-12-20T07:54:50.825Z,72.16
2022-12-20T07:57:27.424Z,71.75
2022-12-20T08:00:02.284Z,71.62
2022-12-20T08:02:49.169Z,70.76
2022-12-20T08:05:21.944Z,70.48
2022-12-20T08:07:59.508Z,70.34
2022-12-20T08:10:32.457Z,70.12
2022-12-20T08:13:05.021Z,69.18
2022-12-20T08:15:38.197Z,68.83
2022-12-20T08:18:10.741Z,68.65
2022-12-20T08:20:43.452Z,68.04
2022-12-20T08:23:15.807Z,67.27
2022-12-20T08:25:47.938Z,67.18
2022-12-20T08:28:20.576Z,66.40
2022-12-20T08:30:53.039Z,66.71
2022-12-20T08:33:25.949Z,66.63
2022-12-20T08:36:02.586Z,66.51
2022-12-20T08:38:35.722Z,66.72
2022-12-20T08:41:10.619Z,66.59
2022-12-20T08:43:44.758Z,66.78
2022-12-20T08:46:17.283Z,66.50
2022-12-20T08:48:49.944Z,65.86
2022-12-20T08:51:22.417Z,66.06
2022-12-20T08:53:54.938Z,65.97
2022-12-20T08:56:27.515Z,65.61
2022-12-20T08:59:00.133Z,65.27
2022-12-20T09:01:33.913Z,65.46
2022-12-20T09:04:07.319Z,65.31
2022-12-20T09:06:39.976Z,65.12
2022-12-20T09:09:14.598Z,64.50
2022-12-20T09:11:46.878Z,64.31
2022-12-20T09:14:19.816Z,64.43
2022-12-20T09:16:52.328Z,64.10
2022-12-20T09:19:24.504Z,63.71
2022-12-20T09:21:57.928Z,64.12
2022-12-20T09:24:30.582Z,63.68
2022-12-20T09:27:03.169Z,63.89
2022-12-20T09:29:36.103Z,63.81
2022-12-20T09:32:09.131Z,63.68
2022-12-20T09:34:42.381Z,63.61
2022-12-20T09:37:15.161Z,63.52
2022-12-20T09:39:50.235Z,62.77
2022-12-20T09:42:29.377Z,62.18
2022-12-20T09:45:08.178Z,61.82
2022-12-20T09:47:42.232Z,62.25
2022-12-20T09:50:18.967Z,62.46
2022-12-20T09:53:18.351Z,62.14
2022-12-20T09:55:56.224Z,61.62
2022-12-20T09:58:43.317Z,61.90
2022-12-20T10:01:25.270Z,61.57
2022-12-20T10:04:01.786Z,61.44
2022-12-20T10:06:46.630Z,61.68
2022-12-20T10:09:38.315Z,61.49
2022-12-20T10:12:22.541Z,61.55
2022-12-20T10:15:12.692Z,61.43
2022-12-20T10:17:56.863Z,61.36
2022-12-20T10:20:43.068Z,61.60
2022-12-20T10:23:32.684Z,61.05
2022-12-20T10:26:12.410Z,60.59
2022-12-20T10:28:48.079Z,61.13
2022-12-20T10:31:25.514Z,60.30
2022-12-20T10:33:58.680Z,60.54
2022-12-20T10:36:33.548Z,61.00
2022-12-20T10:39:07.342Z,61.17
2022-12-20T10:41:52.528Z,60.53
2022-12-20T10:44:28.536Z,60.30
2022-12-20T10:47:02.321Z,60.79
2022-12-20T10:49:37.246Z,60.60
2022-12-20T10:52:15.924Z,60.48
2022-12-20T10:54:51.994Z,60.89
2022-12-20T10:57:27.672Z,60.43
2022-12-20T11:00:02.295Z,60.83
2022-12-20T11:02:41.250Z,60.52
2022-12-20T11:05:25.723Z,60.40
2022-12-20T11:11:11.803Z,60.06
2022-12-20T11:13:44.984Z,59.74
2022-12-20T11:16:39.313Z,59.70
2022-12-20T11:19:31.574Z,59.26
2022-12-20T11:22:15.539Z,59.03
2022-12-20T11:24:59.771Z,58.70
2022-12-20T11:27:43.140Z,58.27
2022-12-20T11:30:21.439Z,58.16
2022-12-20T11:33:16.627Z,58.26
2022-12-20T11:35:59.209Z,58.17
2022-12-20T11:38:43.443Z,58.16
2022-12-20T11:41:27.877Z,58.53
2022-12-20T11:44:26.222Z,58.05
2022-12-20T11:47:15.438Z,58.36
2022-12-20T11:50:04.673Z,58.06
2022-12-20T11:52:43.049Z,58.66
2022-12-20T11:55:25.395Z,58.04
2022-12-20T11:58:20.522Z,58.25
2022-12-20T12:00:59.531Z,58.32
2022-12-20T12:03:36.108Z,58.67
2022-12-20T12:06:13.327Z,58.72
2022-12-20T12:08:51.242Z,59.45
2022-12-20T12:14:33.248Z,60.02
2022-12-20T12:17:14.395Z,60.26
2022-12-20T12:19:51.219Z,60.84
2022-12-20T12:22:31.805Z,60.99
2022-12-20T12:25:12.804Z,60.94
2022-12-20T12:27:45.594Z,61.47
2022-12-20T12:30:19.667Z,61.65
2022-12-20T12:32:56.921Z,62.23
2022-12-20T12:35:55.300Z,62.68
2022-12-20T12:39:02.125Z,63.24
2022-12-20T12:42:08.890Z,63.59
2022-12-20T12:44:50.198Z,63.74
2022-12-20T12:47:33.054Z,64.11
2022-12-20T12:50:09.029Z,64.02
2022-12-20T12:52:50.880Z,64.71
2022-12-20T12:55:49.537Z,65.20
2022-12-20T12:58:44.540Z,65.20
2022-12-20T13:01:54.039Z,65.53
2022-12-20T13:04:33.391Z,64.78
2022-12-20T13:07:27.546Z,65.04
2022-12-20T13:10:00.490Z,65.12
2022-12-20T13:13:02.061Z,65.27
2022-12-20T13:15:53.263Z,65.88
2022-12-20T13:18:32.099Z,66.04
2022-12-20T13:21:39.523Z,66.76
2022-12-20T13:24:53.658Z,66.99
2022-12-20T13:27:36.291Z,67.17
2022-12-20T13:30:39.636Z,67.22
2022-12-20T13:33:40.195Z,67.22
2022-12-20T13:36:34.059Z,67.56
2022-12-20T13:39:29.350Z,67.42
2022-12-20T13:42:20.674Z,67.55
2022-12-20T13:44:56.206Z,67.97
2022-12-20T13:47:40.604Z,68.13
2022-12-20T13:50:33.220Z,68.30
2022-12-20T13:53:08.135Z,67.88
2022-12-20T13:55:42.847Z,68.51
2022-12-20T13:58:17.807Z,68.06
2022-12-20T14:00:51.206Z,68.13
2022-12-20T14:03:31.031Z,68.24
2022-12-20T14:06:06.148Z,67.82
2022-12-20T14:08:42.531Z,68.10
2022-12-20T14:11:18.457Z,68.77
2022-12-20T14:13:58.017Z,68.33
2022-12-20T14:16:32.434Z,68.40
2022-12-20T14:19:06.461Z,68.37
2022-12-20T14:21:41.858Z,68.40
2022-12-20T14:24:18.917Z,68.33
2022-12-20T14:26:54.681Z,68.34
2022-12-20T14:29:32.554Z,68.82
2022-12-20T14:32:06.142Z,69.10
2022-12-20T14:34:44.110Z,69.26
2022-12-20T14:37:32.150Z,69.41
2022-12-20T14:40:21.352Z,69.17
2022-12-20T14:42:54.021Z,69.51
2022-12-20T14:45:29.008Z,69.69
2022-12-20T14:48:08.689Z,69.59
2022-12-20T14:50:42.209Z,69.72
2022-12-20T14:53:21.572Z,69.75
2022-12-20T14:55:56.303Z,69.75
2022-12-20T14:58:31.305Z,69.68
2022-12-20T15:01:19.242Z,69.70
2022-12-20T15:03:54.336Z,69.11
2022-12-20T15:06:41.339Z,69.20
2022-12-20T15:09:14.876Z,69.01
2022-12-20T15:11:51.803Z,69.09
2022-12-20T15:14:37.680Z,69.19
2022-12-20T15:17:14.606Z,69.35
2022-12-20T15:19:47.263Z,69.65
2022-12-20T15:22:21.726Z,69.98
2022-12-20T15:24:55.829Z,69.89
2022-12-20T15:27:28.287Z,70.04
2022-12-20T15:30:00.773Z,70.09
2022-12-20T15:32:33.996Z,69.77
2022-12-20T15:35:14.063Z,69.91
2022-12-20T15:37:46.649Z,70.18
2022-12-20T15:40:19.601Z,70.12
2022-12-20T15:42:53.050Z,70.38
2022-12-20T15:45:27.208Z,70.26
2022-12-20T15:47:59.680Z,69.63
2022-12-20T15:50:32.267Z,69.65
2022-12-20T15:53:04.776Z,69.83
2022-12-20T15:55:39.893Z,69.70
2022-12-20T15:58:13.133Z,70.03
2022-12-20T16:00:46.196Z,69.98
2022-12-20T16:03:23.454Z,70.04
2022-12-20T16:05:56.421Z,70.16
2022-12-20T16:08:28.918Z,69.62
2022-12-20T16:11:01.455Z,69.62
2022-12-20T16:13:37.842Z,70.00
2022-12-20T16:16:15.456Z,70.30
2022-12-20T16:18:50.706Z,69.96
2022-12-20T16:21:25.343Z,69.77
2022-12-20T16:23:57.915Z,69.64
2022-12-20T16:26:30.709Z,69.71
2022-12-20T16:29:03.215Z,69.47
2022-12-20T16:31:37.896Z,69.38
2022-12-20T16:34:13.908Z,69.32
2022-12-20T16:36:47.726Z,69.08
2022-12-20T16:39:21.166Z,68.99
2022-12-20T16:41:53.763Z,69.20
2022-12-20T16:44:26.539Z,69.30
2022-12-20T16:46:59.090Z,69.04
2022-12-20T16:49:31.645Z,69.10
2022-12-20T16:52:04.799Z,69.24
2022-12-20T16:54:37.446Z,68.98
2022-12-20T16:57:13.288Z,68.83
2022-12-20T16:59:45.747Z,68.90
2022-12-20T17:02:27.457Z,69.02
2022-12-20T17:05:01.283Z,69.02
2022-12-20T17:07:41.132Z,68.83
2022-12-20T17:10:14.537Z,69.32
2022-12-20T17:12:47.526Z,69.29
2022-12-20T17:15:23.666Z,69.34
2022-12-20T17:17:56.804Z,69.43
2022-12-20T17:20:36.454Z,69.38
2022-12-20T17:26:06.130Z,68.96
2022-12-20T17:28:38.714Z,69.70
2022-12-20T17:31:23.123Z,69.05
2022-12-20T17:33:56.253Z,69.45
2022-12-20T17:36:35.867Z,69.38
2022-12-20T17:39:10.268Z,68.95
2022-12-20T17:41:43.752Z,69.12
2022-12-20T17:44:21.184Z,69.32
2022-12-20T17:46:54.367Z,68.92
2022-12-20T17:49:27.446Z,68.92
2022-12-20T17:51:59.938Z,69.08
2022-12-20T17:54:39.595Z,69.03
2022-12-20T17:57:16.853Z,68.92
2022-12-20T17:59:49.857Z,69.25
2022-12-20T18:02:27.508Z,68.79
2022-12-20T18:05:00.564Z,68.95
2022-12-20T18:07:33.073Z,68.50
2022-12-20T18:10:06.292Z,68.71
2022-12-20T18:12:39.780Z,68.45
2022-12-20T18:15:14.345Z,68.87
2022-12-20T18:17:47.275Z,69.05
2022-12-20T18:20:20.046Z,68.89
2022-12-20T18:22:53.644Z,68.81
2022-12-20T18:25:26.126Z,68.64
2022-12-20T18:27:58.752Z,68.90
2022-12-20T18:30:31.549Z,68.67
2022-12-20T18:33:04.047Z,68.43
2022-12-20T18:35:36.857Z,68.86
2022-12-20T18:38:10.223Z,68.78
2022-12-20T18:40:47.089Z,68.32
2022-12-20T18:43:19.590Z,68.11
2022-12-20T18:45:52.189Z,68.02
2022-12-20T18:48:24.888Z,67.83
2022-12-20T18:50:57.675Z,67.46
2022-12-20T18:53:31.433Z,67.13
2022-12-20T18:56:05.848Z,67.02
2022-12-20T18:58:39.775Z,66.41
2022-12-20T19:01:15.399Z,66.95
2022-12-20T19:03:48.225Z,66.90
2022-12-20T19:06:22.372Z,66.92
2022-12-20T19:08:54.952Z,66.96
2022-12-20T19:11:27.620Z,67.16
2022-12-20T19:14:00.310Z,67.09
2022-12-20T19:16:33.442Z,66.90
2022-12-20T19:19:08.306Z,66.57
2022-12-20T19:21:45.070Z,66.16
2022-12-20T19:24:17.546Z,65.99
2022-12-20T19:26:50.062Z,66.13
2022-12-20T19:29:22.880Z,66.19
2022-12-20T19:31:55.514Z,66.06
2022-12-20T19:34:28.047Z,66.15
2022-12-20T19:37:00.923Z,66.01
2022-12-20T19:39:33.677Z,65.58
2022-12-20T19:44:58.770Z,65.45
2022-12-20T19:47:33.733Z,65.22
2022-12-20T19:50:09.228Z,65.23
2022-12-20T19:52:41.777Z,65.15
2022-12-20T19:55:14.471Z,65.36
2022-12-20T19:57:47.030Z,65.25
2022-12-20T20:00:21.981Z,65.32
2022-12-20T20:02:55.102Z,64.89
2022-12-20T20:05:27.736Z,64.77
2022-12-20T20:08:00.259Z,64.22
2022-12-20T20:10:32.781Z,64.25
2022-12-20T20:13:07.570Z,64.27
2022-12-20T20:15:40.151Z,64.04
2022-12-20T20:18:13.257Z,64.14
2022-12-20T20:20:45.986Z,63.32
2022-12-20T20:23:18.712Z,63.61
2022-12-20T20:25:56.964Z,63.09
2022-12-20T20:28:33.091Z,63.08
2022-12-20T20:31:06.849Z,63.32
2022-12-20T20:33:39.606Z,63.92
2022-12-20T20:36:17.366Z,63.56
2022-12-20T20:38:50.263Z,63.18
2022-12-20T20:41:23.628Z,63.55
2022-12-20T20:43:57.612Z,63.25
2022-12-20T20:46:30.245Z,63.01
2022-12-20T20:49:02.833Z,62.99
2022-12-20T20:51:35.663Z,63.19
2022-12-20T20:54:08.547Z,63.25
2022-12-20T20:56:41.081Z,63.16
2022-12-20T20:59:17.859Z,62.68
2022-12-20T21:01:51.106Z,62.64
2022-12-20T21:04:23.666Z,62.83
2022-12-20T21:06:56.278Z,62.08
2022-12-20T21:09:28.860Z,62.20
2022-12-20T21:12:01.592Z,62.19
2022-12-20T21:15:10.686Z,62.15
2022-12-20T21:17:26.795Z,62.15
2022-12-20T21:19:59.289Z,61.74
2022-12-20T21:22:31.972Z,62.12
2022-12-20T21:25:06.392Z,61.52
2022-12-20T21:27:38.890Z,61.39
2022-12-20T21:30:13.081Z,61.74
2022-12-20T21:32:45.794Z,61.58
2022-12-20T21:35:18.547Z,61.68
2022-12-20T21:37:51.796Z,61.41
2022-12-20T21:40:24.320Z,61.40
2022-12-20T21:42:56.812Z,61.36
2022-12-20T21:45:29.342Z,61.28
2022-12-20T21:48:03.632Z,61.36
2022-12-20T21:50:36.648Z,61.08
2022-12-20T21:53:12.792Z,61.34
2022-12-20T21:55:48.277Z,61.27
2022-12-20T21:58:20.788Z,61.39
2022-12-20T22:00:55.063Z,61.16
2022-12-20T22:03:28.559Z,61.23
2022-12-20T22:06:01.124Z,61.21
2022-12-20T22:08:34.640Z,60.76
2022-12-20T22:11:10.217Z,61.03
2022-12-20T22:13:43.399Z,60.84
2022-12-20T22:16:18.364Z,60.26
2022-12-20T22:18:54.236Z,60.22
2022-12-20T22:21:28.664Z,60.36
2022-12-20T22:24:02.916Z,60.17
2022-12-20T22:26:37.001Z,59.95
2022-12-20T22:29:10.570Z,59.95
2022-12-20T22:31:43.190Z,59.69
2022-12-20T22:34:15.739Z,59.73
2022-12-20T22:36:50.420Z,59.79
2022-12-20T22:39:23.083Z,59.34
2022-12-20T22:41:55.521Z,58.87
2022-12-20T22:44:28.914Z,58.79
2022-12-20T22:47:01.529Z,58.58
2022-12-20T22:49:34.471Z,58.61
2022-12-20T22:52:08.046Z,58.12
2022-12-20T22:54:41.192Z,58.15
2022-12-20T22:57:14.891Z,57.50
2022-12-20T22:59:47.508Z,57.79
2022-12-20T23:02:20.469Z,57.77
2022-12-20T23:04:53.548Z,57.79
2022-12-20T23:07:26.093Z,57.15
2022-12-20T23:09:58.695Z,57.14
2022-12-20T23:12:48.683Z,57.20
2022-12-20T23:15:38.491Z,56.71
2022-12-20T23:18:10.996Z,57.26
2022-12-20T23:21:15.160Z,57.13
2022-12-20T23:23:52.450Z,57.37
2022-12-20T23:26:28.541Z,57.81
2022-12-20T23:29:01.333Z,57.33
2022-12-20T23:31:34.510Z,57.69
2022-12-20T23:34:07.267Z,58.00
2022-12-20T23:36:39.927Z,57.89
2022-12-20T23:39:12.431Z,58.21
2022-12-20T23:41:45.157Z,58.35
2022-12-20T23:44:17.726Z,58.94
2022-12-20T23:46:50.351Z,58.98
2022-12-20T23:49:23.120Z,58.66
2022-12-20T23:51:55.615Z,58.68
2022-12-20T23:54:28.699Z,58.86
2022-12-20T23:57:01.215Z,59.08
2022-12-20T23:59:33.943Z,59.10
